createdAt,value
2022-11-16T04:36:53.643Z,0
2022-11-16T04:41:55.359Z,0
2022-11-16T04:46:57.176Z,0
2022-11-16T04:51:59.048Z,0
2022-11-16T04:57:00.862Z,0
2022-11-16T05:02:02.668Z,0
2022-11-16T05:07:05.103Z,0
2022-11-16T05:12:07.024Z,0
2022-11-16T05:17:09.391Z,0
2022-11-16T05:22:11.110Z,0
2022-11-16T05:27:14.139Z,0
2022-11-16T05:32:16.093Z,1.67
2022-11-16T05:37:18.278Z,1.67
2022-11-16T05:42:20.331Z,0
2022-11-16T05:47:22.033Z,0
2022-11-16T05:52:23.881Z,0
2022-11-16T05:57:25.536Z,0
2022-11-16T06:02:27.206Z,0
2022-11-16T06:07:29.217Z,0
2022-11-16T06:12:30.911Z,0
2022-11-16T06:17:32.644Z,1.43
2022-11-16T06:22:34.630Z,1.43
2022-11-16T06:27:36.322Z,2.04
2022-11-16T06:32:38.242Z,2.04
2022-11-16T06:37:40.360Z,0
2022-11-16T06:42:42.144Z,0
2022-11-16T06:47:43.928Z,1.52
2022-11-16T06:52:45.682Z,1.52
2022-11-16T06:57:47.394Z,1.11
2022-11-16T07:02:49.037Z,1.11
2022-11-16T07:07:53.432Z,1.93
2022-11-16T07:12:55.189Z,1.93
2022-11-16T07:17:56.964Z,0
2022-11-16T07:23:00.141Z,1.72
2022-11-16T07:28:01.791Z,1.72
2022-11-16T07:33:03.536Z,2.78
2022-11-16T07:38:05.231Z,2.78
2022-11-16T07:43:06.965Z,1.95
2022-11-16T07:48:08.757Z,1.95
2022-11-16T07:53:10.508Z,0.43
2022-11-16T07:58:12.535Z,0.43
2022-11-16T08:03:14.553Z,2.08
2022-11-16T08:08:16.266Z,2.08
2022-11-16T08:13:17.979Z,0.98
2022-11-16T08:18:19.675Z,0.98
2022-11-16T08:23:21.398Z,0
2022-11-16T08:28:23.184Z,0
2022-11-16T08:33:24.940Z,0
2022-11-16T08:38:27.983Z,0
2022-11-16T08:43:29.663Z,0
2022-11-16T08:48:32.669Z,0
2022-11-16T08:53:34.627Z,0
2022-11-16T08:58:37.144Z,0.51
2022-11-16T09:03:38.837Z,0.51
2022-11-16T09:08:41.849Z,2.02
2022-11-16T09:13:43.982Z,2.02
2022-11-16T09:18:46.644Z,0.64
2022-11-16T09:23:49.005Z,0.64
2022-11-16T09:28:53.690Z,3.92
2022-11-16T09:33:55.753Z,3.92
2022-11-16T09:44:07.390Z,0
2022-11-16T09:54:20.233Z,1.5
2022-11-16T09:59:23.756Z,1.5
2022-11-16T10:09:32.335Z,2.49
2022-11-16T10:19:45.001Z,1.42
2022-11-16T10:24:51.476Z,0.79
2022-11-16T10:29:59.149Z,0.79
2022-11-16T10:35:04.687Z,1.86
2022-11-16T10:40:15.714Z,1.86
2022-11-16T10:45:19.656Z,0
2022-11-16T10:50:27.449Z,0
2022-11-16T10:55:29.382Z,0
2022-11-16T11:00:38.994Z,0
2022-11-16T11:05:48.756Z,0
2022-11-16T11:21:07.097Z,0.45
2022-11-16T11:31:19.096Z,0
2022-11-16T11:36:21.645Z,0
2022-11-16T11:41:23.773Z,0
2022-11-16T11:51:36.160Z,0
2022-11-16T11:56:37.938Z,0
2022-11-16T12:01:50.205Z,2.07
2022-11-16T12:06:56.645Z,0.93
2022-11-16T12:17:18.564Z,0
2022-11-16T12:32:41.761Z,0
2022-11-16T12:37:46.046Z,0.28
2022-11-16T12:58:17.544Z,0.3
2022-11-16T13:03:23.646Z,0.3
2022-11-16T13:18:39.993Z,0
2022-11-16T13:23:46.022Z,0
2022-11-16T13:28:51.457Z,0
2022-11-16T13:38:58.751Z,0
2022-11-16T13:44:00.937Z,0.47
2022-11-16T13:49:02.688Z,0.47
2022-11-16T13:59:15.007Z,0
2022-11-16T14:19:51.533Z,0
2022-11-16T14:24:57.697Z,0
2022-11-16T14:30:03.116Z,0
2022-11-16T14:35:06.616Z,0
2022-11-16T14:40:13.435Z,0
2022-11-16T14:45:16.594Z,0
2022-11-16T14:50:19.121Z,0
2022-11-16T14:55:22.134Z,0
2022-11-16T15:00:24.624Z,0
2022-11-16T15:05:28.269Z,0
2022-11-16T15:10:30.154Z,0
2022-11-16T15:15:32.273Z,0
2022-11-16T15:20:35.557Z,0
2022-11-16T15:25:41.445Z,0
2022-11-16T15:30:45.009Z,0
2022-11-16T15:35:46.784Z,1.26
2022-11-16T15:40:50.336Z,1.26
2022-11-16T15:45:52.838Z,0
2022-11-16T15:51:01.525Z,0
2022-11-16T15:56:04.791Z,0
2022-11-16T16:01:07.799Z,0
2022-11-16T16:06:13.233Z,0
2022-11-16T16:16:23.956Z,0
2022-11-16T16:21:28.520Z,0
2022-11-16T16:26:31.866Z,0
2022-11-16T16:31:35.126Z,0
2022-11-16T16:36:39.087Z,1.19
2022-11-16T16:41:41.149Z,0
2022-11-16T16:46:43.287Z,0
2022-11-16T16:51:45.934Z,0
2022-11-16T16:56:47.883Z,0
2022-11-16T17:01:49.823Z,0
2022-11-16T17:06:52.700Z,0
2022-11-16T17:11:56.277Z,0
2022-11-16T17:17:00.520Z,0
2022-11-16T17:22:03.924Z,0
2022-11-16T17:27:08.002Z,0
2022-11-16T17:32:11.975Z,0
2022-11-16T17:37:15.121Z,0
2022-11-16T17:42:18.127Z,0
2022-11-16T17:47:21.144Z,0
2022-11-16T17:52:23.805Z,1.58
2022-11-16T17:57:26.169Z,2.69
2022-11-16T18:02:28.476Z,2.69
2022-11-16T18:07:32.269Z,0
2022-11-16T18:12:35.258Z,0
2022-11-16T18:17:37.515Z,1
2022-11-16T18:22:40.846Z,1
2022-11-16T18:27:43.320Z,1.66
2022-11-16T18:32:45.936Z,1.66
2022-11-16T18:37:48.908Z,1.33
2022-11-16T18:42:51.091Z,1.33
2022-11-16T18:47:54.209Z,1.34
2022-11-16T18:52:57.381Z,1.34
2022-11-16T18:58:01.100Z,3.77
2022-11-16T19:03:12.477Z,3.77
2022-11-16T19:08:15.324Z,1.93
2022-11-16T19:13:18.388Z,1.66
2022-11-16T19:18:23.533Z,1.66
2022-11-16T19:23:27.181Z,1.99
2022-11-16T19:28:29.865Z,1.99
2022-11-16T19:33:36.757Z,3.28
2022-11-16T19:38:40.874Z,3.28
2022-11-16T19:43:44.478Z,3.19
2022-11-16T19:48:47.216Z,3.19
2022-11-16T19:53:51.697Z,3.1
2022-11-16T19:58:55.301Z,3.1
2022-11-16T20:03:59.771Z,2.76
2022-11-16T20:09:03.495Z,2.76
2022-11-16T20:14:08.804Z,2.01
2022-11-16T20:19:12.216Z,2.8
2022-11-16T20:24:16.364Z,2.8
2022-11-16T20:29:21.229Z,2.41
2022-11-16T20:34:23.991Z,2.41
2022-11-16T20:39:27.786Z,4.09
2022-11-16T20:44:30.265Z,4.09
2022-11-16T20:49:32.500Z,5.33
2022-11-16T20:54:35.984Z,5.33
2022-11-16T20:59:38.189Z,1.58
2022-11-16T21:04:40.517Z,1.58
2022-11-16T21:09:42.344Z,1.55
2022-11-16T21:14:44.160Z,1.55
2022-11-16T21:24:51.736Z,0.87
2022-11-16T21:29:53.517Z,1.76
2022-11-16T21:34:55.393Z,1.76
2022-11-16T21:39:57.096Z,1.64
2022-11-16T21:44:58.912Z,0.41
2022-11-16T21:55:06.775Z,0.41
2022-11-16T22:00:09.188Z,0.41
2022-11-16T22:05:11.223Z,0.41
2022-11-16T22:10:13.302Z,0.41
2022-11-16T22:15:15.081Z,0.41
2022-11-16T22:20:17.292Z,0.41
2022-11-16T22:25:19.152Z,0.41
2022-11-16T22:30:21.220Z,0.41
2022-11-16T22:35:22.831Z,0.41
2022-11-16T22:40:24.814Z,0.41
